Arlanza Village, CA

7:34 AM PST on December 22, 2014 (GMT -0800)
La Sierra / Country View Estates | Change Station
CLOSE
Current Station
Personal Weather Station
Location: Riverside, CA
Elevation: 856 ft
Nearby Weather Stations
Active Advisory: Wind Advisory

Elev 856 ft 33.95 °N, 117.49 °W | Updated 9 minutes ago

Clear
Clear
50.9 °F
Feels Like 50.9 °F
N
1.0
Wind Variable Wind from NNE
Gusts 2.0 mph

Today
High -- | Low -- °F
--% Chance of Precip.
Yesterday
High -- | Low -- °F
Precip. -- in
6:51 AM 4:45 PM
New Moon, 0% visible
Pressure 30.02 in
Visibility 6.0 miles
Clouds Clear
Dew Point 49 °F
Humidity 93%
Rainfall 0.00 in
Snow Depth Not available.
UV 0 out of 12
Pollen 5.20 out of 12
Air Quality Not available.
Flu Activity Not available.
METAR KRAL 221453Z 12003KT 6SM BR CLR 09/07 A3004 RMK AO2 SLP164 T00890067 55001

More Conditions Fewer Conditions

Pressure 30.02 in
Visibility 6.0 miles
Clouds Clear
Dew Point 49 °F
Humidity 93%
Rainfall 0.00 in
Snow Depth Not available.
UV 0 out of 12
Pollen 5.20 out of 12
Air Quality Not available.
Flu Activity Not available.
METAR KRAL 221453Z 12003KT 6SM BR CLR 09/07 A3004 RMK AO2 SLP164 T00890067 55001

More Conditions Fewer Conditions

10-Day Weather Forecast

Almanac

Astronomy

Dec. 22, 2014 Rise Set
Actual Time
Civil Twilight
Nautical Twilight
Astronomical Twilight
Moon
Length of Visible Light
Length of Day
Tomorrow will be .
, % of the Moon is Illuminated

Today's Extremes

State Highs State Lows

Community

WunderPhotos

Upload Photos

1,779,619 photos uploaded!

WunderBlogs® & News

Nearby

Air Quality

  Air Quality AQ Index Pollutant
Not available.

Snow Depth

Station Depth Elevation

Earthquake Activity

City Distance Mag. Time & Date
Minimum magnitude displayed is 2.5.

Coastal Water Temperatures

Place Temperature

Nearby Weather Stations